sensor_id;sensor_type;location;lat;lon;timestamp;pressure;altitude;pressure_sealevel;temperature;humidity
19005;BME280;9635;52.078;8.648;2023-04-16T00:04:58;100614.91;;;8.75;85.25
19005;BME280;9635;52.078;8.648;2023-04-16T00:10:03;100617.44;;;8.77;85.29
19005;BME280;9635;52.078;8.648;2023-04-16T00:15:07;100620.97;;;8.77;85.19
19005;BME280;9635;52.078;8.648;2023-04-16T00:20:10;100614.66;;;8.66;85.17
19005;BME280;9635;52.078;8.648;2023-04-16T00:25:14;100608.03;;;8.58;85.73
19005;BME280;9635;52.078;8.648;2023-04-16T00:30:17;100610.56;;;8.47;84.94
19005;BME280;9635;52.078;8.648;2023-04-16T00:35:20;100611.13;;;8.65;85.12
19005;BME280;9635;52.078;8.648;2023-04-16T00:40:27;100615.66;;;8.65;85.25
19005;BME280;9635;52.078;8.648;2023-04-16T00:45:30;100611.91;;;8.67;85.18
19005;BME280;9635;52.078;8.648;2023-04-16T00:50:33;100615.53;;;8.53;85.22
19005;BME280;9635;52.078;8.648;2023-04-16T00:55:38;100618.41;;;8.63;85.08
19005;BME280;9635;52.078;8.648;2023-04-16T01:00:41;100618.19;;;8.66;85.17
19005;BME280;9635;52.078;8.648;2023-04-16T01:05:44;100613.28;;;8.60;85.23
19005;BME280;9635;52.078;8.648;2023-04-16T01:10:51;100614.25;;;8.59;85.23
19005;BME280;9635;52.078;8.648;2023-04-16T01:15:53;100622.16;;;8.60;85.16
19005;BME280;9635;52.078;8.648;2023-04-16T01:20:58;100627.50;;;8.60;85.25
19005;BME280;9635;52.078;8.648;2023-04-16T01:26:01;100642.94;;;8.57;85.35
19005;BME280;9635;52.078;8.648;2023-04-16T01:31:04;100642.44;;;8.65;85.33
19005;BME280;9635;52.078;8.648;2023-04-16T01:36:38;100637.38;;;8.60;85.37
19005;BME280;9635;52.078;8.648;2023-04-16T01:41:41;100648.22;;;8.58;85.24
19005;BME280;9635;52.078;8.648;2023-04-16T01:46:44;100649.59;;;8.64;84.80
19005;BME280;9635;52.078;8.648;2023-04-16T01:51:49;100649.06;;;8.59;84.85
19005;BME280;9635;52.078;8.648;2023-04-16T01:56:53;100660.50;;;8.61;84.93
19005;BME280;9635;52.078;8.648;2023-04-16T02:01:59;100667.47;;;8.64;84.82
19005;BME280;9635;52.078;8.648;2023-04-16T02:07:04;100662.03;;;8.65;84.64
19005;BME280;9635;52.078;8.648;2023-04-16T02:12:07;100655.81;;;8.65;84.73
19005;BME280;9635;52.078;8.648;2023-04-16T02:17:11;100662.13;;;8.64;84.47
19005;BME280;9635;52.078;8.648;2023-04-16T02:22:18;100672.50;;;8.55;84.21
19005;BME280;9635;52.078;8.648;2023-04-16T02:27:21;100675.06;;;8.57;84.25
19005;BME280;9635;52.078;8.648;2023-04-16T02:32:31;100671.75;;;8.53;84.08
19005;BME280;9635;52.078;8.648;2023-04-16T02:37:36;100680.44;;;8.57;84.43
19005;BME280;9635;52.078;8.648;2023-04-16T02:42:41;100673.25;;;8.57;84.88
19005;BME280;9635;52.078;8.648;2023-04-16T02:47:44;100681.06;;;8.60;84.83
19005;BME280;9635;52.078;8.648;2023-04-16T02:52:48;100682.91;;;8.60;84.70
19005;BME280;9635;52.078;8.648;2023-04-16T02:57:52;100686.63;;;8.57;84.36
19005;BME280;9635;52.078;8.648;2023-04-16T03:02:55;100689.81;;;8.50;84.63
19005;BME280;9635;52.078;8.648;2023-04-16T03:07:59;100686.22;;;8.51;83.78
19005;BME280;9635;52.078;8.648;2023-04-16T03:13:03;100688.75;;;8.52;83.77
19005;BME280;9635;52.078;8.648;2023-04-16T03:18:06;100684.22;;;8.40;83.62
19005;BME280;9635;52.078;8.648;2023-04-16T03:23:10;100685.28;;;8.37;82.84
19005;BME280;9635;52.078;8.648;2023-04-16T03:28:13;100697.59;;;8.40;82.94
19005;BME280;9635;52.078;8.648;2023-04-16T03:33:16;100694.16;;;8.38;82.77
19005;BME280;9635;52.078;8.648;2023-04-16T03:38:21;100704.41;;;8.46;83.15
19005;BME280;9635;52.078;8.648;2023-04-16T03:43:24;100704.44;;;8.31;82.66
19005;BME280;9635;52.078;8.648;2023-04-16T03:48:27;100704.09;;;8.36;82.82
19005;BME280;9635;52.078;8.648;2023-04-16T03:53:33;100715.16;;;8.44;82.63
19005;BME280;9635;52.078;8.648;2023-04-16T03:58:36;100720.16;;;8.36;82.83
19005;BME280;9635;52.078;8.648;2023-04-16T04:03:39;100726.06;;;8.41;82.79
19005;BME280;9635;52.078;8.648;2023-04-16T04:08:44;100722.56;;;8.40;82.90
19005;BME280;9635;52.078;8.648;2023-04-16T04:13:48;100724.66;;;8.35;82.88
19005;BME280;9635;52.078;8.648;2023-04-16T04:18:51;100733.53;;;8.23;82.29
19005;BME280;9635;52.078;8.648;2023-04-16T04:23:57;100740.13;;;8.17;81.80
19005;BME280;9635;52.078;8.648;2023-04-16T04:29:03;100737.25;;;8.21;82.24
19005;BME280;9635;52.078;8.648;2023-04-16T04:34:06;100747.72;;;7.97;82.37
19005;BME280;9635;52.078;8.648;2023-04-16T04:39:10;100747.69;;;8.11;82.18
19005;BME280;9635;52.078;8.648;2023-04-16T04:44:16;100759.81;;;8.16;82.32
19005;BME280;9635;52.078;8.648;2023-04-16T04:49:19;100761.56;;;8.17;82.25
19005;BME280;9635;52.078;8.648;2023-04-16T04:54:24;100771.56;;;8.14;82.09
19005;BME280;9635;52.078;8.648;2023-04-16T04:59:27;100779.41;;;8.17;82.83
19005;BME280;9635;52.078;8.648;2023-04-16T05:04:30;100778.53;;;8.16;82.27
19005;BME280;9635;52.078;8.648;2023-04-16T05:09:36;100786.50;;;8.18;82.52
19005;BME280;9635;52.078;8.648;2023-04-16T05:14:39;100792.59;;;8.20;82.69
19005;BME280;9635;52.078;8.648;2023-04-16T05:19:41;100803.31;;;8.20;82.40
19005;BME280;9635;52.078;8.648;2023-04-16T05:24:46;100805.41;;;8.15;81.99
19005;BME280;9635;52.078;8.648;2023-04-16T05:29:48;100815.56;;;8.10;81.72
19005;BME280;9635;52.078;8.648;2023-04-16T05:34:51;100811.53;;;8.03;81.88
19005;BME280;9635;52.078;8.648;2023-04-16T05:39:55;100818.81;;;8.15;82.06
19005;BME280;9635;52.078;8.648;2023-04-16T05:44:58;100825.41;;;8.09;81.22
19005;BME280;9635;52.078;8.648;2023-04-16T05:50:01;100833.72;;;8.05;81.44
19005;BME280;9635;52.078;8.648;2023-04-16T05:55:06;100827.78;;;8.14;81.49
19005;BME280;9635;52.078;8.648;2023-04-16T06:00:09;100838.47;;;8.14;80.96
19005;BME280;9635;52.078;8.648;2023-04-16T06:05:12;100839.16;;;8.17;81.86
19005;BME280;9635;52.078;8.648;2023-04-16T06:10:17;100836.53;;;8.30;81.78
19005;BME280;9635;52.078;8.648;2023-04-16T06:15:20;100847.59;;;8.38;80.84
19005;BME280;9635;52.078;8.648;2023-04-16T06:20:23;100842.06;;;8.42;81.05
19005;BME280;9635;52.078;8.648;2023-04-16T06:25:27;100846.94;;;8.35;80.62
19005;BME280;9635;52.078;8.648;2023-04-16T06:30:30;100857.38;;;8.54;80.98
19005;BME280;9635;52.078;8.648;2023-04-16T06:35:33;100871.03;;;8.49;80.01
19005;BME280;9635;52.078;8.648;2023-04-16T06:40:37;100878.22;;;8.49;79.53
19005;BME280;9635;52.078;8.648;2023-04-16T06:45:40;100879.00;;;8.51;79.22
19005;BME280;9635;52.078;8.648;2023-04-16T06:50:43;100886.56;;;8.71;79.44
19005;BME280;9635;52.078;8.648;2023-04-16T06:55:47;100886.72;;;8.82;79.17
19005;BME280;9635;52.078;8.648;2023-04-16T07:00:50;100887.09;;;8.91;79.43
19005;BME280;9635;52.078;8.648;2023-04-16T07:05:53;100887.56;;;8.97;78.68
19005;BME280;9635;52.078;8.648;2023-04-16T07:10:58;100896.63;;;9.22;78.85
19005;BME280;9635;52.078;8.648;2023-04-16T07:16:01;100894.25;;;9.17;78.44
19005;BME280;9635;52.078;8.648;2023-04-16T07:21:04;100898.56;;;9.20;79.35
19005;BME280;9635;52.078;8.648;2023-04-16T07:26:08;100910.13;;;9.20;79.04
19005;BME280;9635;52.078;8.648;2023-04-16T07:31:12;100912.50;;;9.25;78.22
19005;BME280;9635;52.078;8.648;2023-04-16T07:36:14;100913.50;;;9.37;78.05
19005;BME280;9635;52.078;8.648;2023-04-16T07:41:19;100905.59;;;9.61;78.34
19005;BME280;9635;52.078;8.648;2023-04-16T07:46:21;100910.97;;;9.73;78.68
19005;BME280;9635;52.078;8.648;2023-04-16T07:51:27;100916.25;;;9.75;77.71
19005;BME280;9635;52.078;8.648;2023-04-16T07:56:31;100922.91;;;9.69;76.62
19005;BME280;9635;52.078;8.648;2023-04-16T08:01:34;100926.53;;;9.56;75.89
19005;BME280;9635;52.078;8.648;2023-04-16T08:06:37;100930.84;;;9.71;76.14
19005;BME280;9635;52.078;8.648;2023-04-16T08:11:41;100933.91;;;10.05;76.01
19005;BME280;9635;52.078;8.648;2023-04-16T08:16:45;100940.53;;;10.25;76.30
19005;BME280;9635;52.078;8.648;2023-04-16T08:21:48;100944.09;;;10.12;73.67
19005;BME280;9635;52.078;8.648;2023-04-16T08:26:52;100949.13;;;10.30;72.72
19005;BME280;9635;52.078;8.648;2023-04-16T08:32:00;100950.06;;;10.42;75.35
19005;BME280;9635;52.078;8.648;2023-04-16T08:37:04;100954.81;;;10.51;74.36
19005;BME280;9635;52.078;8.648;2023-04-16T08:42:12;100959.66;;;10.33;72.73
19005;BME280;9635;52.078;8.648;2023-04-16T08:47:16;100960.63;;;10.32;72.55
19005;BME280;9635;52.078;8.648;2023-04-16T08:52:21;100969.53;;;10.32;73.00
19005;BME280;9635;52.078;8.648;2023-04-16T08:57:32;100968.19;;;10.76;74.62
19005;BME280;9635;52.078;8.648;2023-04-16T09:02:37;100969.34;;;11.22;72.53
19005;BME280;9635;52.078;8.648;2023-04-16T09:07:40;100972.91;;;11.10;68.65
19005;BME280;9635;52.078;8.648;2023-04-16T09:12:45;100972.88;;;11.22;70.21
19005;BME280;9635;52.078;8.648;2023-04-16T09:17:48;100967.31;;;11.13;69.57
19005;BME280;9635;52.078;8.648;2023-04-16T09:22:51;100969.41;;;11.33;70.64
19005;BME280;9635;52.078;8.648;2023-04-16T09:27:55;100978.16;;;10.87;68.69
19005;BME280;9635;52.078;8.648;2023-04-16T09:33:12;100985.06;;;10.78;69.57
19005;BME280;9635;52.078;8.648;2023-04-16T09:38:17;100990.75;;;10.74;69.66
19005;BME280;9635;52.078;8.648;2023-04-16T09:43:21;100994.38;;;10.86;69.92
19005;BME280;9635;52.078;8.648;2023-04-16T09:48:28;100996.03;;;10.99;69.32
19005;BME280;9635;52.078;8.648;2023-04-16T09:53:34;101000.78;;;11.09;69.60
19005;BME280;9635;52.078;8.648;2023-04-16T09:58:38;101009.72;;;10.96;68.79
19005;BME280;9635;52.078;8.648;2023-04-16T10:03:41;101010.84;;;11.31;67.57
19005;BME280;9635;52.078;8.648;2023-04-16T10:08:46;101016.28;;;11.42;67.36
19005;BME280;9635;52.078;8.648;2023-04-16T10:13:52;101026.56;;;11.11;66.81
19005;BME280;9635;52.078;8.648;2023-04-16T10:18:55;101027.50;;;10.73;67.40
19005;BME280;9635;52.078;8.648;2023-04-16T10:23:59;101029.34;;;10.47;68.51
19005;BME280;9635;52.078;8.648;2023-04-16T10:29:05;101046.44;;;10.33;69.13
19005;BME280;9635;52.078;8.648;2023-04-16T10:34:09;101045.91;;;10.15;69.74
19005;BME280;9635;52.078;8.648;2023-04-16T10:39:12;101036.75;;;10.05;69.81
19005;BME280;9635;52.078;8.648;2023-04-16T10:44:19;101048.03;;;10.10;69.09
19005;BME280;9635;52.078;8.648;2023-04-16T10:49:23;101057.75;;;9.86;70.35
19005;BME280;9635;52.078;8.648;2023-04-16T10:54:27;101049.97;;;9.81;71.15
19005;BME280;9635;52.078;8.648;2023-04-16T10:59:33;101050.56;;;9.86;71.28
19005;BME280;9635;52.078;8.648;2023-04-16T11:04:37;101053.50;;;9.82;70.83
19005;BME280;9635;52.078;8.648;2023-04-16T11:09:54;101046.34;;;9.82;70.56
19005;BME280;9635;52.078;8.648;2023-04-16T11:15:00;101045.75;;;9.91;71.45
19005;BME280;9635;52.078;8.648;2023-04-16T11:20:05;101054.00;;;9.88;72.45
19005;BME280;9635;52.078;8.648;2023-04-16T11:25:22;101048.50;;;9.90;73.11
19005;BME280;9635;52.078;8.648;2023-04-16T11:30:32;101058.53;;;9.88;73.92
19005;BME280;9635;52.078;8.648;2023-04-16T11:35:36;101055.19;;;9.97;73.88
19005;BME280;9635;52.078;8.648;2023-04-16T11:40:41;101062.19;;;10.00;73.80
19005;BME280;9635;52.078;8.648;2023-04-16T11:45:55;101066.06;;;10.08;73.26
19005;BME280;9635;52.078;8.648;2023-04-16T11:50:59;101062.84;;;10.16;71.95
19005;BME280;9635;52.078;8.648;2023-04-16T11:56:02;101062.09;;;10.14;71.19
19005;BME280;9635;52.078;8.648;2023-04-16T12:01:07;101064.56;;;10.17;71.83
19005;BME280;9635;52.078;8.648;2023-04-16T12:06:10;101072.72;;;10.03;71.80
19005;BME280;9635;52.078;8.648;2023-04-16T12:11:13;101072.53;;;10.19;72.59
19005;BME280;9635;52.078;8.648;2023-04-16T12:16:18;101070.59;;;10.33;72.87
19005;BME280;9635;52.078;8.648;2023-04-16T12:21:22;101081.47;;;10.57;73.10
19005;BME280;9635;52.078;8.648;2023-04-16T12:26:25;101075.03;;;10.60;72.15
19005;BME280;9635;52.078;8.648;2023-04-16T12:31:36;101071.38;;;10.61;72.69
19005;BME280;9635;52.078;8.648;2023-04-16T12:36:40;101075.13;;;10.71;71.68
19005;BME280;9635;52.078;8.648;2023-04-16T12:41:42;101086.19;;;10.79;72.19
19005;BME280;9635;52.078;8.648;2023-04-16T12:46:47;101076.59;;;11.01;71.20
19005;BME280;9635;52.078;8.648;2023-04-16T12:51:50;101069.94;;;11.43;70.27
19005;BME280;9635;52.078;8.648;2023-04-16T12:56:53;101073.16;;;11.72;69.48
19005;BME280;9635;52.078;8.648;2023-04-16T13:01:59;101073.44;;;12.05;67.11
19005;BME280;9635;52.078;8.648;2023-04-16T13:07:04;101077.78;;;11.94;65.36
19005;BME280;9635;52.078;8.648;2023-04-16T13:12:07;101078.97;;;12.26;66.61
19005;BME280;9635;52.078;8.648;2023-04-16T13:17:11;101088.78;;;12.27;66.06
19005;BME280;9635;52.078;8.648;2023-04-16T13:22:14;101083.72;;;12.35;65.41
19005;BME280;9635;52.078;8.648;2023-04-16T13:27:17;101077.72;;;12.31;65.91
19005;BME280;9635;52.078;8.648;2023-04-16T13:32:21;101067.47;;;12.59;64.65
19005;BME280;9635;52.078;8.648;2023-04-16T13:37:24;101077.56;;;12.33;64.88
19005;BME280;9635;52.078;8.648;2023-04-16T13:42:27;101080.09;;;12.23;64.75
19005;BME280;9635;52.078;8.648;2023-04-16T13:47:31;101071.69;;;12.04;64.70
19005;BME280;9635;52.078;8.648;2023-04-16T13:52:34;101071.03;;;12.24;64.46
19005;BME280;9635;52.078;8.648;2023-04-16T13:57:37;101075.03;;;12.43;64.04
19005;BME280;9635;52.078;8.648;2023-04-16T14:02:41;101069.91;;;12.51;63.12
19005;BME280;9635;52.078;8.648;2023-04-16T14:07:46;101065.88;;;12.68;63.30
19005;BME280;9635;52.078;8.648;2023-04-16T14:12:49;101069.31;;;12.81;63.15
19005;BME280;9635;52.078;8.648;2023-04-16T14:17:54;101060.84;;;12.97;62.82
19005;BME280;9635;52.078;8.648;2023-04-16T14:22:56;101054.84;;;12.82;61.18
19005;BME280;9635;52.078;8.648;2023-04-16T14:27:59;101063.91;;;12.92;62.67
19005;BME280;9635;52.078;8.648;2023-04-16T14:33:04;101058.28;;;12.84;61.84
19005;BME280;9635;52.078;8.648;2023-04-16T14:38:07;101056.94;;;12.78;62.64
19005;BME280;9635;52.078;8.648;2023-04-16T14:43:10;101054.84;;;12.82;62.99
19005;BME280;9635;52.078;8.648;2023-04-16T14:48:14;101060.84;;;12.86;62.48
19005;BME280;9635;52.078;8.648;2023-04-16T14:53:17;101064.75;;;13.04;62.59
19005;BME280;9635;52.078;8.648;2023-04-16T14:58:19;101059.03;;;12.97;62.10
19005;BME280;9635;52.078;8.648;2023-04-16T15:03:24;101055.34;;;12.87;61.77
19005;BME280;9635;52.078;8.648;2023-04-16T15:08:27;101054.50;;;12.75;62.17
19005;BME280;9635;52.078;8.648;2023-04-16T15:13:30;101058.03;;;12.65;62.39
19005;BME280;9635;52.078;8.648;2023-04-16T15:18:36;101064.53;;;12.62;62.98
19005;BME280;9635;52.078;8.648;2023-04-16T15:23:39;101063.28;;;12.44;62.31
19005;BME280;9635;52.078;8.648;2023-04-16T15:28:42;101062.41;;;12.32;62.52
19005;BME280;9635;52.078;8.648;2023-04-16T15:33:46;101063.50;;;12.29;62.92
19005;BME280;9635;52.078;8.648;2023-04-16T15:38:49;101069.63;;;12.31;63.16
19005;BME280;9635;52.078;8.648;2023-04-16T15:43:52;101065.19;;;12.30;63.47
19005;BME280;9635;52.078;8.648;2023-04-16T15:48:56;101063.16;;;12.10;63.33
19005;BME280;9635;52.078;8.648;2023-04-16T15:53:59;101072.88;;;12.24;64.00
19005;BME280;9635;52.078;8.648;2023-04-16T15:59:02;101072.69;;;12.38;63.34
19005;BME280;9635;52.078;8.648;2023-04-16T16:04:06;101077.09;;;12.39;62.83
19005;BME280;9635;52.078;8.648;2023-04-16T16:09:09;101079.41;;;12.32;61.66
19005;BME280;9635;52.078;8.648;2023-04-16T16:14:12;101076.19;;;12.27;62.67
19005;BME280;9635;52.078;8.648;2023-04-16T16:19:20;101082.78;;;12.23;62.31
19005;BME280;9635;52.078;8.648;2023-04-16T16:24:22;101082.28;;;12.18;63.01
19005;BME280;9635;52.078;8.648;2023-04-16T16:29:25;101084.00;;;12.19;63.11
19005;BME280;9635;52.078;8.648;2023-04-16T16:34:29;101091.56;;;12.14;62.65
19005;BME280;9635;52.078;8.648;2023-04-16T16:39:32;101095.94;;;12.04;62.96
19005;BME280;9635;52.078;8.648;2023-04-16T16:44:38;101094.78;;;11.95;63.24
19005;BME280;9635;52.078;8.648;2023-04-16T16:49:42;101102.03;;;11.94;63.49
19005;BME280;9635;52.078;8.648;2023-04-16T16:54:45;101099.28;;;11.83;64.20
19005;BME280;9635;52.078;8.648;2023-04-16T16:59:48;101107.31;;;11.72;64.57
19005;BME280;9635;52.078;8.648;2023-04-16T17:04:53;101098.94;;;11.64;65.01
19005;BME280;9635;52.078;8.648;2023-04-16T17:09:56;101105.19;;;11.64;65.27
19005;BME280;9635;52.078;8.648;2023-04-16T17:15:04;101104.19;;;11.65;65.23
19005;BME280;9635;52.078;8.648;2023-04-16T17:20:09;101097.22;;;11.63;65.03
19005;BME280;9635;52.078;8.648;2023-04-16T17:25:13;101098.31;;;11.60;65.36
19005;BME280;9635;52.078;8.648;2023-04-16T17:30:16;101097.13;;;11.52;65.27
19005;BME280;9635;52.078;8.648;2023-04-16T17:35:20;101089.53;;;11.45;65.69
19005;BME280;9635;52.078;8.648;2023-04-16T17:40:23;101099.75;;;11.40;65.88
19005;BME280;9635;52.078;8.648;2023-04-16T17:45:26;101108.28;;;11.34;66.29
19005;BME280;9635;52.078;8.648;2023-04-16T17:50:30;101110.44;;;11.29;66.50
19005;BME280;9635;52.078;8.648;2023-04-16T17:55:33;101111.00;;;11.21;66.86
19005;BME280;9635;52.078;8.648;2023-04-16T18:00:37;101115.22;;;11.13;67.15
19005;BME280;9635;52.078;8.648;2023-04-16T18:05:41;101128.00;;;11.09;67.42
19005;BME280;9635;52.078;8.648;2023-04-16T18:10:44;101130.25;;;11.02;67.90
19005;BME280;9635;52.078;8.648;2023-04-16T18:15:47;101134.34;;;10.95;68.13
19005;BME280;9635;52.078;8.648;2023-04-16T18:20:52;101134.88;;;10.88;68.26
19005;BME280;9635;52.078;8.648;2023-04-16T18:25:55;101139.63;;;10.84;68.28
19005;BME280;9635;52.078;8.648;2023-04-16T18:30:58;101152.31;;;10.82;68.46
19005;BME280;9635;52.078;8.648;2023-04-16T18:36:06;101153.59;;;10.76;68.65
19005;BME280;9635;52.078;8.648;2023-04-16T18:41:15;101163.81;;;10.71;68.73
19005;BME280;9635;52.078;8.648;2023-04-16T18:46:18;101166.63;;;10.70;68.83
19005;BME280;9635;52.078;8.648;2023-04-16T18:51:22;101172.09;;;10.68;68.88
19005;BME280;9635;52.078;8.648;2023-04-16T18:56:27;101177.66;;;10.65;68.85
19005;BME280;9635;52.078;8.648;2023-04-16T19:01:30;101188.50;;;10.64;68.82
19005;BME280;9635;52.078;8.648;2023-04-16T19:06:35;101184.22;;;10.61;68.56
19005;BME280;9635;52.078;8.648;2023-04-16T19:11:37;101190.34;;;10.63;68.52
19005;BME280;9635;52.078;8.648;2023-04-16T19:16:40;101182.28;;;10.63;68.96
19005;BME280;9635;52.078;8.648;2023-04-16T19:21:45;101190.66;;;10.58;68.73
19005;BME280;9635;52.078;8.648;2023-04-16T19:26:48;101188.84;;;10.59;68.83
19005;BME280;9635;52.078;8.648;2023-04-16T19:31:51;101197.13;;;10.56;68.64
19005;BME280;9635;52.078;8.648;2023-04-16T19:36:55;101198.56;;;10.47;68.86
19005;BME280;9635;52.078;8.648;2023-04-16T19:41:58;101200.31;;;10.48;68.54
19005;BME280;9635;52.078;8.648;2023-04-16T19:47:02;101204.72;;;10.49;68.59
19005;BME280;9635;52.078;8.648;2023-04-16T19:52:08;101203.88;;;10.49;68.86
19005;BME280;9635;52.078;8.648;2023-04-16T19:57:10;101201.38;;;10.46;69.00
19005;BME280;9635;52.078;8.648;2023-04-16T20:02:13;101205.91;;;10.45;69.27
19005;BME280;9635;52.078;8.648;2023-04-16T20:07:17;101207.91;;;10.42;69.14
19005;BME280;9635;52.078;8.648;2023-04-16T20:12:21;101208.78;;;10.42;69.19
19005;BME280;9635;52.078;8.648;2023-04-16T20:17:24;101203.53;;;10.41;69.15
19005;BME280;9635;52.078;8.648;2023-04-16T20:22:28;101202.88;;;10.37;69.26
19005;BME280;9635;52.078;8.648;2023-04-16T20:27:31;101212.00;;;10.34;69.56
19005;BME280;9635;52.078;8.648;2023-04-16T20:32:35;101215.94;;;10.29;69.60
19005;BME280;9635;52.078;8.648;2023-04-16T20:37:39;101216.47;;;10.21;69.83
19005;BME280;9635;52.078;8.648;2023-04-16T20:42:42;101204.31;;;10.15;69.87
19005;BME280;9635;52.078;8.648;2023-04-16T20:47:47;101210.94;;;10.10;70.14
19005;BME280;9635;52.078;8.648;2023-04-16T20:52:51;101210.38;;;10.05;70.49
19005;BME280;9635;52.078;8.648;2023-04-16T20:57:54;101210.38;;;10.05;70.38
19005;BME280;9635;52.078;8.648;2023-04-16T21:02:58;101217.78;;;10.01;70.17
19005;BME280;9635;52.078;8.648;2023-04-16T21:08:02;101227.84;;;9.98;70.38
19005;BME280;9635;52.078;8.648;2023-04-16T21:13:05;101219.03;;;9.96;70.31
19005;BME280;9635;52.078;8.648;2023-04-16T21:18:11;101224.69;;;9.91;70.01
19005;BME280;9635;52.078;8.648;2023-04-16T21:23:16;101225.00;;;9.86;70.14
19005;BME280;9635;52.078;8.648;2023-04-16T21:28:19;101226.13;;;9.82;70.20
19005;BME280;9635;52.078;8.648;2023-04-16T21:33:22;101230.72;;;9.80;70.28
19005;BME280;9635;52.078;8.648;2023-04-16T21:38:26;101232.00;;;9.75;70.34
19005;BME280;9635;52.078;8.648;2023-04-16T21:43:29;101232.94;;;9.73;70.47
19005;BME280;9635;52.078;8.648;2023-04-16T21:48:32;101230.56;;;9.69;70.78
19005;BME280;9635;52.078;8.648;2023-04-16T21:53:37;101229.78;;;9.67;71.10
19005;BME280;9635;52.078;8.648;2023-04-16T21:58:40;101230.06;;;9.62;71.73
19005;BME280;9635;52.078;8.648;2023-04-16T22:03:43;101234.88;;;9.43;73.45
19005;BME280;9635;52.078;8.648;2023-04-16T22:08:49;101238.16;;;9.34;73.90
19005;BME280;9635;52.078;8.648;2023-04-16T22:13:53;101237.28;;;9.33;74.15
19005;BME280;9635;52.078;8.648;2023-04-16T22:18:58;101236.78;;;9.26;74.20
19005;BME280;9635;52.078;8.648;2023-04-16T22:24:02;101240.72;;;9.21;73.98
19005;BME280;9635;52.078;8.648;2023-04-16T22:29:05;101238.16;;;9.19;74.13
19005;BME280;9635;52.078;8.648;2023-04-16T22:34:08;101236.31;;;9.20;73.35
19005;BME280;9635;52.078;8.648;2023-04-16T22:39:12;101235.47;;;9.19;72.97
19005;BME280;9635;52.078;8.648;2023-04-16T22:44:15;101241.09;;;9.15;72.20
19005;BME280;9635;52.078;8.648;2023-04-16T22:49:18;101239.00;;;9.20;72.08
19005;BME280;9635;52.078;8.648;2023-04-16T22:54:26;101238.03;;;9.21;72.05
19005;BME280;9635;52.078;8.648;2023-04-16T22:59:29;101239.09;;;9.18;71.60
19005;BME280;9635;52.078;8.648;2023-04-16T23:04:32;101237.38;;;9.17;72.00
19005;BME280;9635;52.078;8.648;2023-04-16T23:09:37;101235.47;;;9.19;71.85
19005;BME280;9635;52.078;8.648;2023-04-16T23:14:39;101236.22;;;9.21;71.95
19005;BME280;9635;52.078;8.648;2023-04-16T23:19:46;101243.19;;;9.24;71.97
19005;BME280;9635;52.078;8.648;2023-04-16T23:24:50;101250.31;;;9.25;72.19
19005;BME280;9635;52.078;8.648;2023-04-16T23:29:53;101246.66;;;9.26;72.44
19005;BME280;9635;52.078;8.648;2023-04-16T23:34:56;101246.66;;;9.26;72.67
19005;BME280;9635;52.078;8.648;2023-04-16T23:40:00;101248.56;;;9.24;72.73
19005;BME280;9635;52.078;8.648;2023-04-16T23:45:03;101240.53;;;9.24;72.98
19005;BME280;9635;52.078;8.648;2023-04-16T23:50:06;101240.63;;;9.22;72.86
19005;BME280;9635;52.078;8.648;2023-04-16T23:55:10;101248.88;;;9.19;72.93
